Time;durP1;ratioP1;P1;durP2;ratioP2;P2;SDS_P1;SDS_P2;PMS_P1;PMS_P2;Temp;Humidity;BMP_temperature;BMP_pressure;BME280_temperature;BME280_humidity;BME280_pressure;Samples;Min_cycle;Max_cycle;Signal;HPM_P1;HPM_P2
2021/11/23 00:00:58;;;;;;;35.63;18.30;;;;;;;-4.66;82.22;101196.41;5112021;28;20377;-65
2021/11/23 00:03:24;;;;;;;48.83;23.30;;;;;;;-4.70;82.97;101206.06;5111979;28;20027;-64
2021/11/23 00:05:50;;;;;;;60.03;26.87;;;;;;;-4.71;82.79;101208.72;5112447;28;20032;-65
2021/11/23 00:08:17;;;;;;;38.63;20.08;;;;;;;-4.74;83.49;101204.47;5114209;28;20031;-64
2021/11/23 00:10:43;;;;;;;33.97;17.60;;;;;;;-4.64;82.72;101201.53;5115875;28;20035;-65
2021/11/23 00:13:11;;;;;;;37.33;18.88;;;;;;;-4.61;82.88;101198.84;5115803;28;20481;-64
2021/11/23 00:15:37;;;;;;;33.83;18.95;;;;;;;-4.61;83.25;101204.06;5115755;28;20039;-63
2021/11/23 00:18:07;;;;;;;39.10;20.47;;;;;;;-4.65;83.79;101192.03;5115703;28;20161;-66
2021/11/23 00:20:34;;;;;;;44.42;23.05;;;;;;;-4.62;84.25;101202.34;5116053;28;20669;-64
2021/11/23 00:23:00;;;;;;;41.95;20.75;;;;;;;-4.59;84.18;101215.25;5115925;28;20122;-64
2021/11/23 00:25:26;;;;;;;35.83;19.07;;;;;;;-4.49;84.72;101216.59;5115710;28;20118;-65
2021/11/23 00:27:53;;;;;;;33.85;18.17;;;;;;;-4.39;83.75;101223.97;5116024;28;20069;-64
2021/11/23 00:30:19;;;;;;;41.83;20.48;;;;;;;-4.31;84.17;101220.28;5115916;28;20043;-64
2021/11/23 00:32:48;;;;;;;37.40;21.02;;;;;;;-4.16;83.78;101210.13;5115588;28;20075;-65
2021/11/23 00:35:15;;;;;;;44.30;23.13;;;;;;;-4.04;83.37;101201.03;5115524;28;20039;-64
2021/11/23 00:37:43;;;;;;;62.60;31.20;;;;;;;-3.91;82.86;101207.44;5115686;28;20027;-65
2021/11/23 00:40:10;;;;;;;66.43;35.42;;;;;;;-3.90;82.75;101203.94;5097568;28;20027;-64
2021/11/23 00:42:37;;;;;;;56.78;31.48;;;;;;;-3.79;82.70;101216.50;5115273;28;20051;-64
2021/11/23 00:45:04;;;;;;;62.40;34.53;;;;;;;-3.72;82.94;101207.56;5115010;28;20340;-64
2021/11/23 00:47:30;;;;;;;64.18;35.33;;;;;;;-3.75;82.64;101197.28;5115212;28;20081;-65
2021/11/23 00:49:55;;;;;;;57.97;34.23;;;;;;;-3.59;82.41;101203.56;5115184;28;20027;-65
2021/11/23 00:52:21;;;;;;;68.97;41.10;;;;;;;-3.55;82.33;101202.53;5115018;28;20054;-66
2021/11/23 00:54:46;;;;;;;74.10;39.33;;;;;;;-3.72;82.65;101198.91;5115208;28;20030;-65
2021/11/23 00:57:13;;;;;;;68.90;33.80;;;;;;;-3.76;83.24;101199.03;5096768;28;20463;-64
2021/11/23 00:59:39;;;;;;;61.05;35.08;;;;;;;-3.63;83.10;101207.19;5114636;28;20118;-66
2021/11/23 01:02:05;;;;;;;76.10;37.05;;;;;;;-3.55;82.78;101199.91;5114950;28;20028;-65
2021/11/23 01:04:31;;;;;;;63.33;34.00;;;;;;;-3.45;82.63;101205.63;5115153;28;20035;-65
2021/11/23 01:06:57;;;;;;;68.03;35.50;;;;;;;-3.41;82.99;101196.78;5096814;28;20110;-65
2021/11/23 01:09:23;;;;;;;68.23;35.37;;;;;;;-3.32;82.48;101195.53;5114724;28;20100;-66
2021/11/23 01:11:49;;;;;;;62.72;34.00;;;;;;;-3.25;82.38;101196.97;5114654;28;20160;-64
2021/11/23 01:14:15;;;;;;;64.83;37.40;;;;;;;-3.25;82.60;101196.97;5114578;28;20110;-64
2021/11/23 01:16:44;;;;;;;56.83;31.90;;;;;;;-3.20;82.62;101195.00;5114649;28;20027;-64
2021/11/23 01:19:11;;;;;;;65.45;34.67;;;;;;;-3.11;82.46;101194.63;5096297;28;20024;-64
2021/11/23 01:21:37;;;;;;;67.50;38.92;;;;;;;-3.05;82.01;101190.91;5114498;28;20080;-65
2021/11/23 01:24:05;;;;;;;68.78;43.95;;;;;;;-2.97;82.20;101192.28;5114568;28;20031;-64
2021/11/23 01:26:31;;;;;;;75.45;44.05;;;;;;;-2.87;81.41;101192.75;5114492;28;20027;-65
2021/11/23 01:28:56;;;;;;;77.23;44.83;;;;;;;-2.81;80.97;101190.72;5095966;28;20053;-65
2021/11/23 01:31:22;;;;;;;75.87;44.90;;;;;;;-2.82;80.79;101186.41;5114122;28;20265;-64
2021/11/23 01:33:49;;;;;;;64.63;41.70;;;;;;;-2.76;81.05;101184.44;5114296;28;20036;-63
2021/11/23 01:36:14;;;;;;;71.30;42.15;;;;;;;-2.78;81.65;101181.06;5114197;28;20035;-64
2021/11/23 01:38:40;;;;;;;70.17;39.73;;;;;;;-2.83;81.70;101184.72;5114100;28;20183;-64
2021/11/23 01:41:07;;;;;;;60.03;37.75;;;;;;;-2.76;81.95;101189.66;5113937;28;20061;-65
2021/11/23 01:43:58;;;;;;;54.00;32.67;;;;;;;-2.65;81.54;101190.88;5114363;28;20512;-64
2021/11/23 01:46:24;;;;;;;47.77;31.73;;;;;;;-2.61;81.47;101178.53;5113989;28;20058;-64
2021/11/23 01:48:49;;;;;;;43.50;27.90;;;;;;;-2.60;81.14;101178.50;5113929;28;20070;-63
2021/11/23 01:51:15;;;;;;;43.60;28.73;;;;;;;-2.56;81.20;101181.81;5095904;28;20441;-64
2021/11/23 01:53:41;;;;;;;37.93;24.77;;;;;;;-2.53;81.41;101181.66;5114007;28;20034;-64
2021/11/23 01:56:06;;;;;;;42.80;25.73;;;;;;;-2.42;81.02;101184.63;5113837;28;20452;-64
2021/11/23 01:58:32;;;;;;;38.00;26.03;;;;;;;-2.36;80.73;101165.22;5113930;28;20098;-63
2021/11/23 02:00:58;;;;;;;41.73;27.27;;;;;;;-2.37;80.85;101164.38;5113581;28;20027;-64
2021/11/23 02:03:23;;;;;;;41.50;24.93;;;;;;;-2.34;80.69;101148.59;5113722;28;20035;-63
2021/11/23 02:05:49;;;;;;;41.03;24.53;;;;;;;-2.27;81.29;101151.78;5113672;28;20031;-65
2021/11/23 02:08:15;;;;;;;37.30;23.63;;;;;;;-2.25;80.72;101153.41;5113450;28;20454;-65
2021/11/23 02:10:40;;;;;;;35.67;27.17;;;;;;;-2.20;81.09;101154.03;5113690;28;20433;-65
2021/11/23 02:13:06;;;;;;;38.23;27.40;;;;;;;-2.21;80.49;101146.28;5113353;28;20039;-65
2021/11/23 02:15:33;;;;;;;42.53;29.37;;;;;;;-2.16;80.30;101162.56;5095223;28;20024;-65
2021/11/23 02:17:58;;;;;;;49.10;34.93;;;;;;;-2.16;80.79;101151.28;5095123;28;20256;-64
2021/11/23 02:20:25;;;;;;;52.43;34.67;;;;;;;-2.17;80.99;101141.75;5113242;28;20266;-65
2021/11/23 02:22:51;;;;;;;54.38;35.72;;;;;;;-2.21;81.30;101144.50;5113228;28;20038;-64
2021/11/23 02:25:18;;;;;;;53.90;34.33;;;;;;;-2.22;81.51;101140.22;5113359;28;20027;-66
2021/11/23 02:27:46;;;;;;;45.13;32.03;;;;;;;-2.17;81.50;101141.75;5113626;28;20026;-65
2021/11/23 02:30:12;;;;;;;47.20;31.27;;;;;;;-2.17;81.11;101140.00;5112706;28;20341;-64
2021/11/23 02:32:43;;;;;;;49.33;32.17;;;;;;;-2.17;81.34;101131.31;5112962;28;20414;-65
2021/11/23 02:35:11;;;;;;;46.20;28.70;;;;;;;-2.19;81.31;101127.03;5113062;28;20369;-65
2021/11/23 02:37:44;;;;;;;39.55;27.98;;;;;;;-2.19;81.45;101113.97;5112845;28;20257;-65
2021/11/23 02:40:10;;;;;;;43.13;29.10;;;;;;;-2.19;81.46;101127.03;5113442;28;20070;-63
2021/11/23 02:42:36;;;;;;;44.87;29.60;;;;;;;-2.19;81.03;101124.41;5112818;28;20830;-64
2021/11/23 02:45:06;;;;;;;44.80;29.10;;;;;;;-2.15;81.41;101125.09;5094776;28;20395;-65
2021/11/23 02:47:36;;;;;;;46.33;25.42;;;;;;;-2.06;81.39;101122.06;5094614;28;20254;-65
2021/11/23 02:50:04;;;;;;;36.40;24.23;;;;;;;-2.04;80.84;101124.59;5112658;28;20072;-64
2021/11/23 02:52:30;;;;;;;31.63;21.38;;;;;;;-2.07;81.06;101116.91;5112814;28;20262;-64
2021/11/23 02:55:02;;;;;;;32.63;21.23;;;;;;;-2.05;81.33;101115.91;5112944;28;20485;-64
2021/11/23 02:57:32;;;;;;;33.33;24.10;;;;;;;-2.04;80.63;101124.59;5112879;28;20024;-64
2021/11/23 02:59:59;;;;;;;39.30;26.47;;;;;;;-2.01;80.63;101117.47;5094531;28;20609;-64
2021/11/23 03:02:25;;;;;;;39.10;24.97;;;;;;;-2.05;81.13;101110.69;5112376;28;20292;-63
2021/11/23 03:04:55;;;;;;;32.33;20.33;;;;;;;-2.04;80.73;101117.59;5112654;28;20277;-64
2021/11/23 03:07:22;;;;;;;25.17;16.80;;;;;;;-2.03;80.97;101118.44;5112769;28;20046;-65
2021/11/23 03:09:48;;;;;;;24.00;14.87;;;;;;;-2.05;80.77;101115.91;5094463;28;20260;-64
2021/11/23 03:12:19;;;;;;;19.87;12.60;;;;;;;-1.99;81.12;101120.00;5094419;28;20242;-63
2021/11/23 03:14:45;;;;;;;25.63;14.33;;;;;;;-1.96;80.88;101117.25;5112340;28;20031;-64
2021/11/23 03:17:13;;;;;;;22.40;12.13;;;;;;;-2.06;80.70;101102.94;5112209;28;20288;-65
2021/11/23 03:19:40;;;;;;;24.27;13.70;;;;;;;-1.96;80.54;101109.44;5112458;28;20327;-64
2021/11/23 03:22:06;;;;;;;18.37;11.70;;;;;;;-1.97;80.94;101105.13;5112298;28;20293;-65
2021/11/23 03:24:32;;;;;;;18.50;10.33;;;;;;;-1.95;80.61;101100.66;5112247;28;20660;-65
2021/11/23 03:26:57;;;;;;;16.57;11.93;;;;;;;-1.91;80.51;101110.03;5112242;28;20289;-67
2021/11/23 03:29:23;;;;;;;17.73;10.50;;;;;;;-1.92;80.98;101110.97;5113298;28;20053;-65
2021/11/23 03:31:50;;;;;;;14.43;10.97;;;;;;;-1.93;80.67;101104.06;5112314;28;20459;-65
2021/11/23 03:34:16;;;;;;;20.80;12.93;;;;;;;-1.97;80.70;101100.75;5112359;28;20039;-65
2021/11/23 03:36:43;;;;;;;14.70;9.50;;;;;;;-2.01;81.25;101100.97;5094131;28;20352;-63
2021/11/23 03:39:09;;;;;;;17.33;11.87;;;;;;;-2.04;81.31;101101.09;5094173;28;20351;-64
2021/11/23 03:41:35;;;;;;;14.30;9.57;;;;;;;-2.05;81.11;101094.19;5112170;28;20298;-64
2021/11/23 03:44:03;;;;;;;14.07;10.07;;;;;;;-2.06;81.32;101084.66;5097278;28;20317;-65
2021/11/23 03:46:29;;;;;;;18.67;13.50;;;;;;;-1.98;81.49;101090.38;5115701;28;20269;-65
2021/11/23 03:48:54;;;;;;;15.63;9.17;;;;;;;-2.00;80.85;101087.00;5098003;28;20265;-64
2021/11/23 03:51:20;;;;;;;11.30;8.77;;;;;;;-1.94;81.15;101087.53;5116423;28;20325;-64
2021/11/23 03:53:46;;;;;;;14.10;9.40;;;;;;;-1.95;80.99;101082.41;5116120;28;20038;-64
2021/11/23 03:56:13;;;;;;;10.83;7.63;;;;;;;-1.93;80.22;101077.94;5116033;28;20411;-64
2021/11/23 03:58:40;;;;;;;10.47;7.73;;;;;;;-2.08;80.64;101063.88;5116168;28;20042;-66
2021/11/23 04:01:07;;;;;;;10.93;7.23;;;;;;;-1.95;80.74;101087.63;5097838;28;20284;-66
2021/11/23 04:03:34;;;;;;;12.40;7.80;;;;;;;-1.95;80.51;101090.22;5098033;28;20349;-63
2021/11/23 04:06:04;;;;;;;10.97;7.77;;;;;;;-1.92;81.09;101095.31;5116049;28;20904;-65
2021/11/23 04:08:30;;;;;;;12.77;7.23;;;;;;;-1.90;79.83;101086.47;5115910;28;20717;-65
2021/11/23 04:10:55;;;;;;;11.67;7.67;;;;;;;-1.87;79.77;101093.31;5115865;28;20281;-64
2021/11/23 04:13:21;;;;;;;13.90;8.83;;;;;;;-1.88;80.43;101091.63;5115800;28;20179;-64
2021/11/23 04:16:01;;;;;;;9.80;8.10;;;;;;;-1.91;79.99;101083.94;5115861;28;20478;-67
2021/11/23 04:18:35;;;;;;;10.77;9.27;;;;;;;-1.93;80.00;101078.78;5114674;28;20046;-68
2021/11/23 04:21:03;;;;;;;9.73;5.97;;;;;;;-2.05;79.89;101070.69;5115179;28;20833;-66
2021/11/23 04:23:38;;;;;;;13.07;6.67;;;;;;;-2.03;80.30;101079.28;5115230;28;20744;-65
2021/11/23 04:26:12;;;;;;;7.60;5.80;;;;;;;-2.05;80.25;101074.16;5116846;28;20262;-68
2021/11/23 04:28:38;;;;;;;12.10;5.90;;;;;;;-2.05;79.74;101081.13;5072093;28;20048;-65
2021/11/23 04:31:18;;;;;;;7.13;5.10;;;;;;;-1.99;80.19;101083.47;5072310;28;20278;-67
2021/11/23 04:34:10;;;;;;;7.83;5.13;;;;;;;-2.02;79.86;101078.41;5056376;28;20105;-68
2021/11/23 04:36:56;;;;;;;7.32;5.55;;;;;;;-2.16;80.02;101073.84;5068323;28;20328;-65
2021/11/23 04:39:36;;;;;;;7.00;5.33;;;;;;;-2.09;79.74;101088.28;5070958;28;20048;-66
2021/11/23 04:42:01;;;;;;;7.57;5.13;;;;;;;-2.08;79.95;101087.34;5073148;28;20287;-65
2021/11/23 04:44:27;;;;;;;5.17;4.63;;;;;;;-2.12;79.40;101071.94;5072908;28;20263;-64
2021/11/23 04:46:52;;;;;;;7.67;5.70;;;;;;;-2.06;79.54;101077.69;5072318;28;20464;-64
2021/11/23 04:49:18;;;;;;;6.40;5.00;;;;;;;-2.11;79.32;101078.84;5072358;28;20032;-65
2021/11/23 04:51:43;;;;;;;6.20;5.37;;;;;;;-2.14;79.53;101077.22;5072307;28;20020;-65
2021/11/23 04:54:10;;;;;;;5.50;4.30;;;;;;;-2.19;79.42;101080.06;5071742;28;20033;-64
2021/11/23 04:56:36;;;;;;;6.50;4.13;;;;;;;-2.33;79.20;101058.97;5071846;28;20171;-65
2021/11/23 04:59:02;;;;;;;6.70;4.10;;;;;;;-2.25;80.03;101077.75;5078205;28;20386;-65
2021/11/23 05:01:28;;;;;;;8.10;4.80;;;;;;;-2.24;80.08;101084.66;5094493;28;20032;-65
2021/11/23 05:03:55;;;;;;;5.10;4.57;;;;;;;-2.22;80.27;101085.44;5094919;28;20036;-65
2021/11/23 05:06:21;;;;;;;4.88;4.15;;;;;;;-2.22;80.05;101082.81;5094881;28;20055;-65
2021/11/23 05:08:47;;;;;;;4.95;4.45;;;;;;;-2.25;79.42;101076.91;5094069;28;20049;-65
2021/11/23 05:11:12;;;;;;;4.97;3.90;;;;;;;-2.26;79.70;101081.28;5094085;28;20020;-66
2021/11/23 05:13:38;;;;;;;8.63;4.57;;;;;;;-2.32;79.69;101086.75;5094114;28;20027;-64
2021/11/23 05:16:05;;;;;;;9.33;5.77;;;;;;;-2.34;80.10;101091.22;5094400;28;20520;-66
2021/11/23 05:18:30;;;;;;;5.43;4.90;;;;;;;-2.37;80.36;101087.91;5094319;28;20028;-65
2021/11/23 05:20:56;;;;;;;6.80;4.87;;;;;;;-2.37;79.83;101087.91;5094377;28;20316;-65
2021/11/23 05:23:21;;;;;;;7.30;5.93;;;;;;;-2.40;80.38;101093.25;5092828;28;20078;-66
2021/11/23 05:25:47;;;;;;;5.87;5.30;;;;;;;-2.37;80.03;101091.34;5094100;28;20034;-65
2021/11/23 05:28:13;;;;;;;5.80;5.23;;;;;;;-2.30;80.16;101102.38;5094302;28;20059;-64
2021/11/23 05:30:38;;;;;;;6.67;5.30;;;;;;;-2.31;80.36;101083.25;5094279;28;20413;-65
2021/11/23 05:33:06;;;;;;;7.93;5.30;;;;;;;-2.32;79.98;101085.91;5109494;28;20044;-65
2021/11/23 05:35:31;;;;;;;8.48;6.60;;;;;;;-2.29;79.24;101086.66;5114596;28;20039;-65
2021/11/23 05:37:57;;;;;;;7.50;5.73;;;;;;;-2.15;79.75;101098.16;5096291;28;20080;-63
2021/11/23 05:40:22;;;;;;;8.27;5.83;;;;;;;-2.21;79.08;101089.72;5114169;28;20122;-65
2021/11/23 05:42:48;;;;;;;7.27;6.10;;;;;;;-2.23;79.44;101085.50;5114179;28;20166;-64
2021/11/23 05:45:14;;;;;;;7.90;5.67;;;;;;;-2.22;78.73;101093.25;5114271;28;20514;-65
2021/11/23 05:47:42;;;;;;;8.03;5.73;;;;;;;-2.25;79.36;101088.19;5114321;28;20039;-65
2021/11/23 05:50:08;;;;;;;9.87;5.87;;;;;;;-2.22;79.27;101095.84;5114234;28;20262;-69
2021/11/23 05:52:34;;;;;;;9.60;6.00;;;;;;;-2.27;79.13;101091.78;5113812;28;20382;-68
2021/11/23 05:55:00;;;;;;;12.63;9.03;;;;;;;-2.31;79.87;101083.25;5113782;28;20262;-67
2021/11/23 05:57:25;;;;;;;20.33;9.47;;;;;;;-2.30;79.37;101090.16;5113877;28;20454;-66
2021/11/23 05:59:51;;;;;;;8.97;6.70;;;;;;;-2.33;79.31;101085.06;5115168;28;20026;-66
2021/11/23 06:02:16;;;;;;;12.30;6.53;;;;;;;-2.35;79.43;101091.28;5113361;28;20050;-64
2021/11/23 06:04:42;;;;;;;12.37;6.43;;;;;;;-2.37;79.57;101099.19;5113411;28;20024;-68
2021/11/23 06:07:08;;;;;;;10.47;6.70;;;;;;;-2.48;79.75;101090.19;5113449;28;20462;-67
2021/11/23 06:09:33;;;;;;;13.70;6.57;;;;;;;-2.45;79.48;101093.47;5113527;28;20062;-65
2021/11/23 06:11:59;;;;;;;11.07;8.23;;;;;;;-2.54;79.28;101083.50;5113498;28;20085;-68
2021/11/23 06:14:25;;;;;;;15.30;8.15;;;;;;;-2.53;79.64;101087.78;5095654;28;20056;-71
2021/11/23 06:16:51;;;;;;;29.77;14.37;;;;;;;-2.56;79.76;101087.94;5114102;28;20121;-73
2021/11/23 06:19:16;;;;;;;34.97;14.43;;;;;;;-2.75;80.10;101055.78;5113650;28;20031;-75
2021/11/23 06:21:42;;;;;;;18.00;11.23;;;;;;;-2.60;80.14;101089.84;5113340;28;20031;-70
2021/11/23 06:24:10;;;;;;;13.83;7.77;;;;;;;-2.64;80.32;101087.41;5095063;28;20131;-67
2021/11/23 06:26:36;;;;;;;14.15;8.57;;;;;;;-2.64;79.93;101074.38;5111884;28;20088;-68
2021/11/23 06:29:02;;;;;;;14.40;8.00;;;;;;;-2.56;80.40;101087.94;5113471;28;20477;-67
2021/11/23 06:31:29;;;;;;;18.43;10.87;;;;;;;-2.59;80.42;101088.06;5112293;28;20257;-72
2021/11/23 06:33:58;;;;;;;12.77;8.63;;;;;;;-2.64;80.06;101087.41;5113351;28;20369;-70
2021/11/23 06:36:25;;;;;;;16.67;9.10;;;;;;;-2.65;80.35;101093.56;5094919;28;20035;-67
2021/11/23 06:38:51;;;;;;;15.90;9.00;;;;;;;-2.66;80.21;101092.72;5078286;28;20053;-73
2021/11/23 06:41:17;;;;;;;9.03;7.67;;;;;;;-2.57;80.13;101101.88;5111995;28;20845;-73
2021/11/23 06:43:43;;;;;;;16.87;7.50;;;;;;;-2.50;80.26;101109.34;5116957;28;20253;-72
2021/11/23 06:46:18;;;;;;;10.80;7.40;;;;;;;-2.40;79.38;101104.53;5118384;28;20321;-75
2021/11/23 06:48:51;;;;;;;13.07;6.47;;;;;;;-2.36;79.69;101113.91;5118429;28;20044;-74
2021/11/23 06:51:17;;;;;;;11.27;7.50;;;;;;;-2.34;78.79;101109.47;5115630;28;20288;-66
2021/11/23 06:53:42;;;;;;;8.33;6.97;;;;;;;-2.32;78.65;101115.44;5115506;28;20028;-69
2021/11/23 06:56:08;;;;;;;10.90;7.03;;;;;;;-2.31;78.64;101106.75;5113948;28;20031;-66
2021/11/23 06:58:43;;;;;;;9.27;6.83;;;;;;;-2.23;78.51;101112.44;5113686;28;20023;-68
2021/11/23 07:01:08;;;;;;;8.53;6.20;;;;;;;-2.25;78.74;101124.72;5113816;28;20034;-70
2021/11/23 07:03:46;;;;;;;18.50;12.87;;;;;;;-2.27;78.33;101117.88;5113527;28;20344;-70
2021/11/23 07:06:12;;;;;;;10.90;7.87;;;;;;;-2.36;78.88;101120.88;5112879;28;20463;-64
2021/11/23 07:08:39;;;;;;;10.95;6.68;;;;;;;-2.33;79.51;101126.81;5112624;28;20269;-71
2021/11/23 07:11:06;;;;;;;12.50;5.60;;;;;;;-2.38;78.60;101118.34;5113092;28;20035;-70
2021/11/23 07:13:34;;;;;;;17.98;6.25;;;;;;;-2.36;78.94;101115.69;5094562;28;20260;-66
2021/11/23 07:16:00;;;;;;;9.48;5.55;;;;;;;-2.40;79.10;101109.75;5112649;28;20024;-69
2021/11/23 07:18:27;;;;;;;9.02;6.70;;;;;;;-2.33;78.40;101110.31;5094690;28;20374;-68
2021/11/23 07:20:56;;;;;;;8.98;6.10;;;;;;;-2.31;78.27;101116.34;5113300;28;20027;-70
2021/11/23 07:23:22;;;;;;;;;;;;;;;-2.23;78.16;101122.88;5113415;28;20038;-65
2021/11/23 07:25:48;;;;;;;11.65;6.28;;;;;;;-2.26;77.56;101115.19;5112825;28;19961;-65
2021/11/23 07:28:14;;;;;;;12.23;7.40;;;;;;;-2.20;78.15;101130.56;5113154;28;20455;-67
2021/11/23 07:30:40;;;;;;;9.00;7.53;;;;;;;-2.19;77.34;101127.03;5095795;28;20031;-65
2021/11/23 07:33:08;;;;;;;8.77;7.17;;;;;;;-2.12;77.94;101118.91;5112589;28;20051;-66
2021/11/23 07:35:33;;;;;;;8.93;6.72;;;;;;;-2.12;77.17;101114.53;5112605;28;20378;-65
2021/11/23 07:37:59;;;;;;;7.60;6.80;;;;;;;-2.12;77.20;101109.31;5112228;28;20023;-67
2021/11/23 07:40:26;;;;;;;10.37;7.97;;;;;;;-2.08;77.32;101123.03;5112840;28;20031;-63
2021/11/23 07:42:52;;;;;;;15.43;9.27;;;;;;;-2.09;77.63;101123.97;5112465;28;20030;-65
2021/11/23 07:45:18;;;;;;;15.23;9.10;;;;;;;-2.11;78.04;101115.38;5114745;28;20106;-68
2021/11/23 07:47:48;;;;;;;8.27;7.45;;;;;;;-2.04;78.03;101119.38;5093857;28;20073;-65
2021/11/23 07:50:16;;;;;;;12.43;7.83;;;;;;;-2.03;77.56;101123.66;5112617;28;20039;-66
2021/11/23 07:52:44;;;;;;;14.02;9.43;;;;;;;-2.03;77.27;101121.06;5112631;28;20755;-60
2021/11/23 07:55:13;;;;;;;13.43;8.27;;;;;;;-1.99;77.62;101122.63;5112134;28;20401;-68
2021/11/23 07:57:39;;;;;;;12.70;7.82;;;;;;;-1.97;77.68;101121.63;5112379;28;20257;-67
2021/11/23 08:00:09;;;;;;;14.93;6.77;;;;;;;-1.87;77.26;101124.63;5113206;28;20101;-67
2021/11/23 08:02:34;;;;;;;7.70;6.63;;;;;;;-1.90;76.94;101130.84;5098041;28;20308;-72
2021/11/23 08:05:00;;;;;;;10.20;7.07;;;;;;;-1.95;77.51;101117.19;5116313;28;20613;-65
2021/11/23 08:07:28;;;;;;;9.97;7.17;;;;;;;-1.88;76.89;101131.63;5112718;28;20114;-74
2021/11/23 08:09:54;;;;;;;11.30;7.77;;;;;;;-1.83;76.77;101120.09;5113721;28;20272;-73
2021/11/23 08:12:22;;;;;;;11.17;7.13;;;;;;;-1.75;76.57;101133.63;5114471;28;20639;-67
2021/11/23 08:14:48;;;;;;;8.77;7.25;;;;;;;-1.68;76.84;101132.41;5114628;28;20027;-67
2021/11/23 08:17:15;;;;;;;8.73;7.00;;;;;;;-1.58;76.60;101124.03;5094102;28;20122;-72
2021/11/23 08:19:40;;;;;;;7.43;6.37;;;;;;;-1.37;75.55;101134.34;5113898;28;20040;-71
2021/11/23 08:22:07;;;;;;;12.23;8.10;;;;;;;-1.40;75.93;101134.50;5115431;28;20307;-71
2021/11/23 08:24:36;;;;;;;15.27;8.90;;;;;;;-1.39;75.90;101136.19;5112630;28;20346;-64
2021/11/23 08:27:02;;;;;;;13.00;8.10;;;;;;;-1.36;75.87;101142.09;5112500;28;20257;-66
2021/11/23 08:29:28;;;;;;;14.03;7.83;;;;;;;-1.35;75.56;101148.19;5114507;28;20027;-64
2021/11/23 08:31:57;;;;;;;13.85;7.97;;;;;;;-1.33;75.47;101148.94;5115407;28;20300;-63
2021/11/23 08:34:23;;;;;;;13.33;8.37;;;;;;;-1.32;75.55;101148.88;5097656;28;20036;-63
2021/11/23 08:36:49;;;;;;;13.47;8.10;;;;;;;-1.43;75.52;101130.28;5115505;28;20277;-63
2021/11/23 08:39:18;;;;;;;11.70;7.87;;;;;;;-1.32;75.62;101145.41;5116401;28;20032;-66
2021/11/23 08:41:45;;;;;;;9.03;7.10;;;;;;;-1.36;75.85;101151.72;5080650;28;20401;-66
2021/11/23 08:44:11;;;;;;;9.47;7.90;;;;;;;-1.35;75.99;101143.78;5115720;28;20285;-65
2021/11/23 08:46:38;;;;;;;14.07;8.77;;;;;;;-1.32;75.61;101140.19;5115527;28;20071;-63
2021/11/23 08:49:04;;;;;;;12.37;8.47;;;;;;;-1.20;75.80;101141.31;5115653;28;20257;-63
2021/11/23 08:51:33;;;;;;;12.00;7.83;;;;;;;-1.27;75.37;101140.78;5115641;28;20857;-66
2021/11/23 08:54:00;;;;;;;10.10;7.67;;;;;;;-1.32;75.48;101148.03;5096986;28;20015;-60
2021/11/23 08:56:31;;;;;;;10.40;6.83;;;;;;;-1.23;76.05;101151.94;5115136;28;20314;-63
2021/11/23 08:58:57;;;;;;;15.27;9.70;;;;;;;-1.22;75.59;101151.84;5097632;28;20074;-69
2021/11/23 09:01:25;;;;;;;10.90;7.73;;;;;;;-1.19;76.01;101143.84;5096597;28;20367;-68
2021/11/23 09:03:57;;;;;;;14.13;7.97;;;;;;;-1.23;75.60;101134.47;5115190;28;20261;-58
2021/11/23 09:06:25;;;;;;;12.27;8.82;;;;;;;-1.02;75.27;101145.63;5115682;28;20285;-65
2021/11/23 09:09:03;;;;;;;8.02;5.97;;;;;;;-0.91;75.18;101145.03;5098322;28;20147;-61
2021/11/23 09:11:32;;;;;;;9.03;6.43;;;;;;;-0.91;74.69;101143.28;5097912;28;20243;-59
2021/11/23 09:13:57;;;;;;;9.10;6.27;;;;;;;-0.89;74.46;101135.34;5116269;28;20797;-63
2021/11/23 09:16:23;;;;;;;8.27;6.73;;;;;;;-0.87;74.80;101129.09;5115108;28;20055;-67
2021/11/23 09:18:49;;;;;;;11.03;6.83;;;;;;;-0.88;74.68;101124.81;5097200;28;20118;-67
2021/11/23 09:21:17;;;;;;;11.40;7.13;;;;;;;-1.03;75.22;101123.84;5096999;28;20289;-60
2021/11/23 09:23:43;;;;;;;9.60;7.40;;;;;;;-1.00;75.27;101128.91;5114893;28;20260;-69
2021/11/23 09:26:09;;;;;;;10.27;7.27;;;;;;;-1.05;75.40;101124.88;5097980;28;20340;-72
2021/11/23 09:28:38;;;;;;;10.87;7.90;;;;;;;-1.11;75.55;101126.03;5115537;28;20262;-66
2021/11/23 09:31:05;;;;;;;8.67;7.63;;;;;;;-1.09;75.93;101128.56;5115304;28;20325;-66
2021/11/23 09:33:32;;;;;;;19.20;8.33;;;;;;;-1.13;75.58;101138.34;5114786;28;20654;-66
2021/11/23 09:35:58;;;;;;;8.87;7.47;;;;;;;-1.09;75.17;101133.78;5096108;28;20277;-65
2021/11/23 09:38:25;;;;;;;9.63;7.97;;;;;;;-1.02;75.49;101140.38;5114285;28;20257;-66
2021/11/23 09:40:51;;;;;;;15.13;8.23;;;;;;;-1.09;75.71;101134.63;5114493;28;20273;-70
2021/11/23 09:43:17;;;;;;;10.57;9.00;;;;;;;-1.02;75.85;101138.63;5114909;28;20597;-72
2021/11/23 09:45:43;;;;;;;14.17;10.57;;;;;;;-0.98;75.46;101136.69;5097211;28;20023;-69
2021/11/23 09:48:09;;;;;;;10.40;8.93;;;;;;;-0.98;75.82;101134.06;5114486;28;20246;-64
2021/11/23 09:50:44;;;;;;;14.73;9.47;;;;;;;-1.05;75.82;101130.09;5113506;28;20071;-61
2021/11/23 09:53:11;;;;;;;13.50;9.73;;;;;;;-1.05;75.93;101140.53;5115353;28;20736;-65
2021/11/23 09:55:39;;;;;;;11.20;8.80;;;;;;;-1.17;76.66;101135.94;5114847;28;20743;-64
2021/11/23 09:58:04;;;;;;;10.23;8.50;;;;;;;-1.12;76.17;101129.56;5115346;28;20349;-68
2021/11/23 10:00:33;;;;;;;12.90;9.87;;;;;;;-0.97;76.27;101148.81;5115469;28;20679;-63
2021/11/23 10:03:23;;;;;;;15.30;8.68;;;;;;;-1.02;76.22;101143.84;5114488;28;20027;-60
2021/11/23 10:05:51;;;;;;;12.60;10.40;;;;;;;-1.03;76.33;101136.94;5096862;28;20027;-63
2021/11/23 10:08:19;;;;;;;12.47;9.10;;;;;;;-0.88;75.72;101129.19;5097752;28;20257;-64
2021/11/23 10:10:51;;;;;;;11.10;8.80;;;;;;;-0.88;76.20;101129.19;5115148;28;20262;-64
2021/11/23 10:13:22;;;;;;;13.83;9.17;;;;;;;-0.88;75.91;101144.88;5115363;28;20582;-60
2021/11/23 10:15:51;;;;;;;11.63;8.70;;;;;;;-0.94;76.33;101146.03;5113430;28;20261;-61
2021/11/23 10:18:23;;;;;;;;;;;;;;;-0.87;76.18;101143.94;5115128;28;20329;-65
2021/11/23 10:21:11;;;;;;;10.50;8.13;;;;;;;-0.88;76.84;101144.88;5114007;28;19914;-62
2021/11/23 10:23:42;;;;;;;14.20;8.77;;;;;;;-0.91;76.98;101153.72;5114329;28;20294;-63
2021/11/23 10:26:28;;;;;;;10.10;7.20;;;;;;;-0.94;76.83;101149.50;5113720;28;20257;-66
2021/11/23 10:28:58;;;;;;;;;;;;;;;-0.94;76.58;101148.66;5115910;28;20298;-59
2021/11/23 10:31:33;;;;;;;10.17;5.53;;;;;;;-0.96;76.82;101146.13;5113745;28;19913;-62
2021/11/23 10:34:07;;;;;;;7.73;6.07;;;;;;;-1.07;77.29;101143.25;5115010;28;20281;-65
2021/11/23 10:36:35;;;;;;;;;;;;;;;-1.04;77.10;101150.06;5116785;28;20257;-61
2021/11/23 10:39:08;;;;;;;7.63;5.67;;;;;;;-1.07;77.84;101148.47;5114732;28;19923;-60
2021/11/23 10:41:38;;;;;;;8.27;6.47;;;;;;;-1.17;77.83;101141.16;5094643;28;20370;-66
2021/11/23 10:44:31;;;;;;;6.30;5.70;;;;;;;-1.17;77.89;101136.78;5097006;28;20268;-61
2021/11/23 10:47:07;;;;;;;7.50;5.30;;;;;;;-1.12;77.93;101152.25;5113035;28;20274;-66
2021/11/23 10:49:36;;;;;;;8.30;5.53;;;;;;;-1.15;78.12;101148.03;5094959;28;20258;-58
2021/11/23 10:52:05;;;;;;;6.63;4.70;;;;;;;-1.17;78.27;101152.44;5093763;28;20280;-63
2021/11/23 10:54:37;;;;;;;11.70;5.77;;;;;;;-1.19;77.72;101153.47;5114131;28;20278;-63
2021/11/23 10:57:11;;;;;;;8.50;5.57;;;;;;;-1.20;78.13;101147.38;5095692;28;20360;-59
2021/11/23 10:59:42;;;;;;;9.37;7.10;;;;;;;-1.19;78.23;101143.00;5095893;28;20376;-62
2021/11/23 11:02:08;;;;;;;5.83;5.10;;;;;;;-1.20;78.21;101136.94;5112684;28;20728;-67
2021/11/23 11:04:36;;;;;;;6.83;5.10;;;;;;;-1.12;78.58;101145.25;5114525;28;20365;-68
2021/11/23 11:07:07;;;;;;;10.30;5.43;;;;;;;-0.97;78.49;101146.22;5095853;28;20036;-67
2021/11/23 11:09:49;;;;;;;8.70;5.20;;;;;;;-1.00;77.44;101125.47;5114452;28;20038;-72
2021/11/23 11:12:14;;;;;;;6.57;5.37;;;;;;;-0.89;77.51;101145.81;5114437;28;20265;-65
2021/11/23 11:14:42;;;;;;;6.27;5.10;;;;;;;-0.97;77.80;101139.22;5115561;28;20738;-64
2021/11/23 11:17:09;;;;;;;5.93;5.20;;;;;;;-1.06;77.69;101134.47;5114677;28;20035;-64
2021/11/23 11:19:48;;;;;;;8.83;5.40;;;;;;;-1.06;78.00;101149.31;5113797;28;20326;-64